Time;durP1;ratioP1;P1;durP2;ratioP2;P2;SDS_P1;SDS_P2;PMS_P1;PMS_P2;Temp;Humidity;BMP_temperature;BMP_pressure;BME280_temperature;BME280_humidity;BME280_pressure;Samples;Min_cycle;Max_cycle;Signal;HPM_P1;HPM_P2
2022/03/13 00:00:11;;;;;;;21.88;11.95;;;0.50;19.30;;;;;;5079153;28;20782;-60
2022/03/13 00:03:37;;;;;;;23.15;10.98;;;0.50;20.20;;;;;;5074725;28;20032;-59
2022/03/13 00:07:09;;;;;;;20.40;9.27;;;0.50;20.50;;;;;;5068435;28;20041;-60
2022/03/13 00:10:32;;;;;;;24.02;10.88;;;0.40;20.80;;;;;;5081581;28;20051;-60
2022/03/13 00:13:57;;;;;;;25.55;11.70;;;0.40;20.90;;;;;;5072923;28;20049;-61
2022/03/13 00:17:27;;;;;;;17.45;9.52;;;0.40;20.70;;;;;;5065308;28;20052;-60
2022/03/13 00:20:47;;;;;;;21.42;10.27;;;0.40;21.00;;;;;;5074827;28;20048;-60
2022/03/13 00:24:13;;;;;;;21.42;9.77;;;0.30;20.80;;;;;;5080047;28;20037;-61
2022/03/13 00:27:37;;;;;;;20.30;10.63;;;0.20;21.00;;;;;;5063022;28;20048;-60
2022/03/13 00:31:03;;;;;;;20.45;9.38;;;0.10;20.70;;;;;;5074441;28;20039;-60
2022/03/13 00:34:28;;;;;;;23.60;10.20;;;0.20;21.40;;;;;;5057681;28;20059;-61
2022/03/13 00:37:54;;;;;;;24.40;10.88;;;0.20;20.80;;;;;;5074889;28;20131;-62
2022/03/13 00:41:19;;;;;;;22.90;10.57;;;0.10;21.30;;;;;;5075471;28;20439;-61
2022/03/13 00:44:44;;;;;;;24.73;10.65;;;0.00;21.20;;;;;;5058410;28;20039;-60
2022/03/13 00:48:10;;;;;;;27.00;10.40;;;0.00;21.70;;;;;;5075616;28;20047;-60
2022/03/13 00:51:35;;;;;;;21.42;9.40;;;0.00;21.80;;;;;;5072813;28;20071;-60
2022/03/13 00:55:00;;;;;;;16.98;9.05;;;0.10;21.40;;;;;;5085530;28;20055;-61
2022/03/13 00:58:26;;;;;;;19.15;9.75;;;0.00;21.30;;;;;;5080279;28;20086;-60
2022/03/13 01:01:11;;;;;;;17.45;9.93;;;0.00;21.10;;;;;;5065117;28;20408;-61
2022/03/13 01:03:47;;;;;;;18.90;9.18;;;0.00;21.00;;;;;;5080553;28;20032;-61
2022/03/13 01:06:13;;;;;;;17.85;8.55;;;0.00;21.30;;;;;;5057969;28;20033;-61
2022/03/13 01:08:40;;;;;;;21.70;10.85;;;-0.10;21.30;;;;;;5086464;28;20404;-61
2022/03/13 01:11:06;;;;;;;19.40;8.90;;;-0.20;21.80;;;;;;5065582;28;20107;-61
2022/03/13 01:13:32;;;;;;;21.25;9.63;;;-0.20;21.80;;;;;;5068036;28;20032;-60
2022/03/13 01:16:28;;;;;;;20.25;9.13;;;-0.30;21.80;;;;;;5065826;28;20055;-59
2022/03/13 01:18:58;;;;;;;17.50;7.03;;;-0.30;22.30;;;;;;5042245;28;20153;-61
2022/03/13 01:21:26;;;;;;;17.40;8.90;;;-0.40;22.00;;;;;;5069281;28;20577;-60
2022/03/13 01:24:05;;;;;;;23.40;11.40;;;-0.40;22.40;;;;;;5084394;28;20086;-61
2022/03/13 01:26:34;;;;;;;23.48;9.85;;;-0.40;22.70;;;;;;5079738;28;20040;-58
2022/03/13 01:29:58;;;;;;;22.50;9.82;;;-0.50;22.30;;;;;;5084136;28;20101;-60
2022/03/13 01:33:21;;;;;;;20.75;7.72;;;-0.50;22.50;;;;;;5067911;28;20036;-60
2022/03/13 01:36:47;;;;;;;15.70;6.78;;;-0.70;22.30;;;;;;5083243;28;20577;-61
2022/03/13 01:40:12;;;;;;;21.00;9.02;;;-0.90;23.10;;;;;;5064223;28;20040;-60
2022/03/13 01:43:37;;;;;;;18.83;8.25;;;-0.90;22.80;;;;;;5060930;28;20086;-59
2022/03/13 01:47:03;;;;;;;21.80;7.97;;;-1.00;23.70;;;;;;5065961;28;20067;-60
2022/03/13 01:50:30;;;;;;;18.20;7.18;;;-1.20;23.90;;;;;;5071936;28;20076;-61
2022/03/13 01:53:54;;;;;;;15.55;6.80;;;-1.40;25.20;;;;;;5071326;28;20036;-60
2022/03/13 01:57:19;;;;;;;17.33;8.35;;;-1.50;25.90;;;;;;5072130;28;20159;-61
2022/03/13 02:00:46;;;;;;;12.00;6.13;;;-1.70;26.30;;;;;;5066713;28;20458;-60
2022/03/13 02:04:10;;;;;;;17.50;6.80;;;-1.80;26.70;;;;;;5067958;28;20040;-60
2022/03/13 02:07:36;;;;;;;14.15;6.82;;;-1.90;26.70;;;;;;5081026;28;20514;-59
2022/03/13 02:11:01;;;;;;;14.20;5.90;;;-2.00;29.20;;;;;;5066278;28;20045;-60
2022/03/13 02:14:26;;;;;;;20.92;7.75;;;-2.10;29.80;;;;;;5063536;28;20068;-60
2022/03/13 02:17:51;;;;;;;17.17;7.75;;;-2.20;29.80;;;;;;5074850;28;20455;-60
2022/03/13 02:21:20;;;;;;;15.50;7.65;;;-2.20;30.40;;;;;;5061381;28;20040;-60
2022/03/13 02:24:45;;;;;;;16.38;7.80;;;-2.10;29.30;;;;;;5072863;28;20047;-61
2022/03/13 02:28:10;;;;;;;16.35;7.35;;;-2.10;29.70;;;;;;5072090;28;20039;-60
2022/03/13 02:31:36;;;;;;;20.65;10.25;;;-2.10;30.90;;;;;;5062924;28;20033;-61
2022/03/13 02:35:01;;;;;;;18.70;8.60;;;-2.00;31.30;;;;;;5073556;28;20044;-60
2022/03/13 02:38:27;;;;;;;20.65;9.75;;;-2.00;31.10;;;;;;5069201;28;20527;-60
2022/03/13 02:41:52;;;;;;;19.90;8.70;;;-2.00;30.40;;;;;;5079448;28;20044;-61
2022/03/13 02:45:17;;;;;;;23.08;9.25;;;-2.00;31.30;;;;;;5077875;28;20063;-60
2022/03/13 02:48:43;;;;;;;22.10;9.52;;;-1.90;31.50;;;;;;5049084;28;20032;-61
2022/03/13 02:52:08;;;;;;;24.08;10.80;;;-2.00;31.50;;;;;;5080804;28;20036;-60
2022/03/13 02:55:34;;;;;;;23.02;9.63;;;-2.00;31.70;;;;;;5065778;28;20037;-60
2022/03/13 02:58:59;;;;;;;20.33;9.32;;;-2.00;31.70;;;;;;5084604;28;20113;-60
2022/03/13 03:02:24;;;;;;;22.73;9.23;;;-2.10;30.70;;;;;;5077125;28;20032;-60
2022/03/13 03:05:50;;;;;;;22.00;9.57;;;-2.00;31.50;;;;;;5069253;28;20093;-60
2022/03/13 03:09:15;;;;;;;22.85;9.38;;;-2.10;32.10;;;;;;5090579;28;20066;-60
2022/03/13 03:12:40;;;;;;;19.08;8.60;;;-2.10;32.20;;;;;;5088492;28;20042;-61
2022/03/13 03:16:06;;;;;;;25.15;10.73;;;-2.10;32.90;;;;;;5065007;28;20484;-60
2022/03/13 03:19:31;;;;;;;27.00;11.18;;;-2.10;32.80;;;;;;5086203;28;20127;-60
2022/03/13 03:22:56;;;;;;;20.35;9.43;;;-2.20;32.80;;;;;;5091544;28;20519;-60
2022/03/13 03:26:22;;;;;;;22.98;9.52;;;-2.10;32.30;;;;;;5081416;28;20044;-60
2022/03/13 03:29:47;;;;;;;21.48;9.27;;;-2.10;32.00;;;;;;5086105;28;20105;-60
2022/03/13 03:33:12;;;;;;;22.30;8.27;;;-2.20;32.80;;;;;;5051270;28;20025;-60
2022/03/13 03:36:39;;;;;;;20.50;9.23;;;-2.30;31.50;;;;;;5085691;28;20044;-60
2022/03/13 03:40:05;;;;;;;20.38;8.63;;;-2.30;32.00;;;;;;5077890;28;20035;-60
2022/03/13 03:43:28;;;;;;;22.98;8.52;;;-2.40;32.50;;;;;;5050997;28;20079;-60
2022/03/13 03:46:55;;;;;;;19.50;9.07;;;-2.40;32.80;;;;;;5087969;28;20039;-60
2022/03/13 03:50:19;;;;;;;20.65;7.70;;;-2.40;33.70;;;;;;5070900;28;20076;-60
2022/03/13 03:53:44;;;;;;;27.25;10.88;;;-2.50;34.40;;;;;;5080174;28;20040;-60
2022/03/13 03:57:10;;;;;;;19.60;9.25;;;-2.40;34.40;;;;;;5080111;28;20051;-60
2022/03/13 04:00:35;;;;;;;19.40;9.05;;;-2.40;33.40;;;;;;5085363;28;20032;-60
2022/03/13 04:04:01;;;;;;;22.08;9.77;;;-2.40;33.50;;;;;;5087407;28;20032;-60
2022/03/13 04:07:26;;;;;;;22.23;9.68;;;-2.40;33.50;;;;;;5079791;28;20067;-60
2022/03/13 04:10:51;;;;;;;24.10;10.00;;;-2.50;34.30;;;;;;5065506;28;20039;-60
2022/03/13 04:14:18;;;;;;;23.42;8.82;;;-2.50;34.40;;;;;;5087238;28;20125;-60
2022/03/13 04:17:42;;;;;;;20.23;9.68;;;-2.40;34.90;;;;;;5086029;28;20047;-59
2022/03/13 04:21:07;;;;;;;25.73;9.52;;;-2.50;35.50;;;;;;5076677;28;20040;-60
2022/03/13 04:24:33;;;;;;;22.23;10.07;;;-2.50;34.90;;;;;;5050413;28;20039;-60
2022/03/13 04:27:59;;;;;;;24.23;10.45;;;-2.50;34.50;;;;;;5086848;28;20109;-60
2022/03/13 04:31:24;;;;;;;22.48;10.38;;;-2.50;34.50;;;;;;5068629;28;20068;-60
2022/03/13 04:34:49;;;;;;;20.23;10.63;;;-2.40;34.20;;;;;;5082231;28;20035;-61
2022/03/13 04:38:15;;;;;;;23.83;9.27;;;-2.40;33.70;;;;;;5050337;28;20519;-61
2022/03/13 04:41:41;;;;;;;21.65;9.52;;;-2.50;33.30;;;;;;5085052;28;20028;-60
2022/03/13 04:45:06;;;;;;;24.08;9.40;;;-2.50;33.60;;;;;;5076839;28;20032;-60
2022/03/13 04:47:51;;;;;;;22.20;9.90;;;-2.60;33.10;;;;;;5050281;28;20066;-61
2022/03/13 04:50:16;;;;;;;21.45;9.85;;;-2.60;33.60;;;;;;5089492;28;20519;-60
2022/03/13 04:52:42;;;;;;;20.88;9.50;;;-2.50;34.10;;;;;;5087019;28;20043;-61
2022/03/13 04:55:08;;;;;;;20.50;9.40;;;-2.50;32.70;;;;;;5089801;28;20032;-60
2022/03/13 04:57:33;;;;;;;18.95;8.32;;;-2.60;33.00;;;;;;5090092;28;20040;-60
2022/03/13 04:59:59;;;;;;;25.35;9.52;;;-2.60;33.70;;;;;;5068618;28;20078;-59
2022/03/13 05:02:25;;;;;;;18.98;9.05;;;-2.60;32.70;;;;;;5089489;28;20561;-60
2022/03/13 05:04:50;;;;;;;20.08;8.95;;;-2.60;32.90;;;;;;5069831;28;20024;-60
2022/03/13 05:07:18;;;;;;;22.25;8.65;;;-2.70;32.80;;;;;;5089345;28;20068;-59
2022/03/13 05:09:44;;;;;;;21.17;8.35;;;-2.70;33.50;;;;;;5070886;28;20025;-61
2022/03/13 05:12:10;;;;;;;18.48;8.65;;;-2.70;33.40;;;;;;5088955;28;20035;-59
2022/03/13 05:14:36;;;;;;;19.52;7.63;;;-2.80;33.20;;;;;;5072037;28;20036;-60
2022/03/13 05:17:02;;;;;;;18.00;8.10;;;-2.80;33.70;;;;;;5088956;28;20132;-59
2022/03/13 05:19:28;;;;;;;19.55;7.55;;;-2.80;33.00;;;;;;5072889;28;20029;-59
2022/03/13 05:21:53;;;;;;;18.80;7.82;;;-2.80;32.40;;;;;;5089016;28;20024;-60
2022/03/13 05:24:19;;;;;;;23.65;9.85;;;-2.80;34.70;;;;;;5076196;28;20540;-60
2022/03/13 05:26:45;;;;;;;21.42;9.25;;;-2.70;33.30;;;;;;5087274;28;20024;-60
2022/03/13 05:29:50;;;;;;;17.88;8.50;;;-2.70;33.00;;;;;;5085436;28;20031;-59
2022/03/13 05:33:15;;;;;;;23.60;9.32;;;-2.70;34.00;;;;;;5063370;28;20036;-59
2022/03/13 05:36:01;;;;;;;29.67;11.27;;;-2.70;33.20;;;;;;5048851;28;20408;-67
2022/03/13 05:38:26;;;;;;;23.67;11.10;;;-2.60;32.70;;;;;;5086459;28;20036;-67
2022/03/13 05:40:52;;;;;;;21.48;10.10;;;-2.40;31.20;;;;;;5089238;28;20047;-68
2022/03/13 05:43:21;;;;;;;24.42;9.30;;;-2.40;31.70;;;;;;5069199;28;20126;-68
2022/03/13 05:45:46;;;;;;;24.25;10.55;;;-2.30;31.10;;;;;;5088921;28;20043;-68
2022/03/13 05:48:15;;;;;;;21.35;9.32;;;-2.30;30.30;;;;;;5069872;28;20059;-68
2022/03/13 05:50:41;;;;;;;22.98;9.55;;;-2.30;30.60;;;;;;5089148;28;20024;-68
2022/03/13 05:53:06;;;;;;;23.63;10.23;;;-2.30;30.90;;;;;;5070513;28;20055;-67
2022/03/13 05:55:33;;;;;;;23.50;9.30;;;-2.20;30.20;;;;;;5088525;28;20116;-67
2022/03/13 05:58:00;;;;;;;25.92;10.77;;;-2.10;30.40;;;;;;5071416;28;20028;-67
2022/03/13 06:00:26;;;;;;;25.58;11.32;;;-1.80;29.90;;;;;;5088563;28;20024;-67
2022/03/13 06:02:53;;;;;;;25.40;11.25;;;-1.00;28.10;;;;;;5072378;28;20032;-67
2022/03/13 06:05:19;;;;;;;22.80;11.57;;;0.30;24.50;;;;;;5088464;28;20032;-67
2022/03/13 06:07:46;;;;;;;20.20;10.57;;;1.20;21.40;;;;;;5073375;28;20037;-68
2022/03/13 06:10:12;;;;;;;18.98;10.57;;;2.30;18.30;;;;;;5088381;28;20027;-67
2022/03/13 06:12:38;;;;;;;21.75;10.15;;;3.50;15.80;;;;;;5074374;28;20035;-68
2022/03/13 06:15:05;;;;;;;28.45;12.07;;;4.90;13.20;;;;;;5088139;28;20471;-67
2022/03/13 06:17:32;;;;;;;25.92;10.75;;;6.00;10.20;;;;;;5075201;28;20040;-67
2022/03/13 06:19:57;;;;;;;25.67;10.63;;;7.00;8.80;;;;;;5088231;28;20028;-66
2022/03/13 06:22:24;;;;;;;28.13;12.00;;;7.70;6.40;;;;;;5086792;28;20484;-68
2022/03/13 06:24:50;;;;;;;25.45;12.27;;;8.70;6.60;;;;;;5088571;28;20055;-68
2022/03/13 06:27:56;;;;;;;23.83;12.63;;;9.30;4.50;;;;;;5083114;28;20036;-68
2022/03/13 06:31:20;;;;;;;28.75;12.38;;;9.90;2.60;;;;;;5077073;28;20064;-69
2022/03/13 06:34:46;;;;;;;27.45;13.95;;;10.40;1.40;;;;;;5082990;28;20392;-68
2022/03/13 06:38:11;;;;;;;24.17;12.68;;;10.70;1.10;;;;;;5063497;28;20132;-69
2022/03/13 06:41:38;;;;;;;24.98;11.88;;;11.60;1.00;;;;;;5085852;28;20487;-68
2022/03/13 06:45:02;;;;;;;20.77;11.88;;;12.10;1.00;;;;;;5088306;28;20036;-69
2022/03/13 06:48:27;;;;;;;23.02;12.82;;;12.20;1.00;;;;;;5072995;28;20040;-69
2022/03/13 06:51:53;;;;;;;25.33;12.63;;;12.30;1.00;;;;;;5079020;28;20092;-69
2022/03/13 06:55:18;;;;;;;20.90;11.77;;;12.50;1.00;;;;;;5092320;28;20048;-68
2022/03/13 06:58:43;;;;;;;24.10;12.45;;;12.60;1.00;;;;;;5082800;28;20438;-68
2022/03/13 07:02:10;;;;;;;27.40;13.80;;;13.10;1.00;;;;;;5078997;28;20032;-68
2022/03/13 07:05:34;;;;;;;22.27;12.50;;;13.40;1.00;;;;;;5091971;28;20509;-68
2022/03/13 07:08:59;;;;;;;23.17;12.52;;;13.60;1.00;;;;;;5087251;28;20082;-65
2022/03/13 07:12:25;;;;;;;24.23;14.73;;;13.60;1.00;;;;;;5078688;28;20039;-67
2022/03/13 07:15:52;;;;;;;24.85;13.50;;;13.30;1.00;;;;;;5051747;28;20045;-65
2022/03/13 07:19:16;;;;;;;22.52;12.18;;;13.10;1.00;;;;;;5087445;28;20036;-66
2022/03/13 07:22:42;;;;;;;24.70;14.07;;;13.20;1.00;;;;;;5070803;28;20031;-65
2022/03/13 07:26:07;;;;;;;23.90;13.27;;;13.40;1.00;;;;;;5079888;28;20052;-65
2022/03/13 07:29:32;;;;;;;25.30;13.52;;;13.20;1.00;;;;;;5077059;28;20040;-66
2022/03/13 07:32:57;;;;;;;23.73;12.50;;;13.00;1.00;;;;;;5068697;28;20396;-65
2022/03/13 07:36:22;;;;;;;23.30;12.68;;;14.10;1.00;;;;;;5080258;28;20044;-65
2022/03/13 07:39:48;;;;;;;24.25;13.13;;;14.30;1.00;;;;;;5082512;28;20074;-65
2022/03/13 07:43:13;;;;;;;22.38;12.50;;;13.60;1.00;;;;;;5074033;28;20036;-66
2022/03/13 07:46:39;;;;;;;20.27;11.80;;;13.50;1.00;;;;;;5088094;28;20059;-65
2022/03/13 07:50:04;;;;;;;22.45;12.35;;;13.90;1.00;;;;;;5087994;28;20063;-65
2022/03/13 07:53:29;;;;;;;26.15;13.52;;;13.80;1.00;;;;;;5063172;28;20120;-65
2022/03/13 07:56:55;;;;;;;23.80;12.82;;;13.70;1.00;;;;;;5085632;28;20491;-65
2022/03/13 08:00:22;;;;;;;26.05;12.55;;;15.10;1.00;;;;;;5051124;28;20090;-65
2022/03/13 08:03:47;;;;;;;24.25;12.95;;;14.90;1.00;;;;;;5082085;28;20044;-65
2022/03/13 08:07:14;;;;;;;28.30;12.90;;;15.30;1.00;;;;;;5077470;28;20036;-65
2022/03/13 08:10:39;;;;;;;20.20;11.50;;;15.30;1.00;;;;;;5051122;28;20473;-65
2022/03/13 08:14:04;;;;;;;23.65;12.40;;;16.20;1.00;;;;;;5087585;28;20055;-66
2022/03/13 08:17:30;;;;;;;22.80;12.27;;;15.80;1.00;;;;;;5077772;28;20044;-65
2022/03/13 08:20:55;;;;;;;20.63;11.90;;;16.10;1.00;;;;;;5050677;28;20033;-66
2022/03/13 08:24:20;;;;;;;22.17;12.15;;;16.90;1.00;;;;;;5079555;28;20036;-65
2022/03/13 08:27:46;;;;;;;21.23;12.48;;;17.00;1.00;;;;;;5065393;28;20472;-66
2022/03/13 08:31:11;;;;;;;17.63;10.90;;;15.90;1.00;;;;;;5050560;28;20040;-66
2022/03/13 08:34:38;;;;;;;21.73;12.55;;;17.00;1.00;;;;;;5079310;28;20075;-65
2022/03/13 08:38:02;;;;;;;21.20;12.10;;;16.60;1.00;;;;;;5073798;28;20051;-66
2022/03/13 08:41:27;;;;;;;20.85;12.10;;;16.40;1.00;;;;;;5084719;28;20031;-66
2022/03/13 08:44:53;;;;;;;23.20;13.13;;;17.50;1.00;;;;;;5084689;28;20040;-66
2022/03/13 08:48:18;;;;;;;21.27;12.60;;;16.10;1.00;;;;;;5070100;28;20469;-66
2022/03/13 08:51:43;;;;;;;23.27;12.90;;;15.00;1.00;;;;;;5086695;28;20036;-66
2022/03/13 08:55:13;;;;;;;20.35;12.45;;;14.50;1.00;;;;;;5090104;28;20040;-66
2022/03/13 08:58:34;;;;;;;21.45;12.13;;;14.90;1.00;;;;;;5067608;28;20048;-67
2022/03/13 09:01:59;;;;;;;26.40;13.63;;;15.00;1.00;;;;;;5076844;28;20053;-67
2022/03/13 09:05:25;;;;;;;22.40;12.73;;;14.60;1.00;;;;;;5088970;28;20567;-66
2022/03/13 09:08:50;;;;;;;21.60;11.55;;;15.70;1.00;;;;;;5082319;28;20583;-66
2022/03/13 09:12:16;;;;;;;20.65;11.50;;;16.50;1.00;;;;;;5076661;28;20032;-66
2022/03/13 09:15:41;;;;;;;18.10;11.02;;;17.10;1.00;;;;;;5049507;28;20521;-66
2022/03/13 09:19:06;;;;;;;16.88;10.98;;;17.80;1.00;;;;;;5074168;28;20024;-66
2022/03/13 09:22:32;;;;;;;17.60;10.27;;;17.60;1.00;;;;;;5078546;28;20040;-66
2022/03/13 09:26:20;;;;;;;19.33;10.77;;;17.10;1.00;;;;;;5079502;28;20833;-66
2022/03/13 09:29:46;;;;;;;16.08;10.35;;;17.40;1.00;;;;;;5069001;28;20035;-65
2022/03/13 09:33:12;;;;;;;17.20;10.27;;;17.30;1.00;;;;;;5084185;28;20684;-65
2022/03/13 09:36:37;;;;;;;17.63;9.57;;;16.40;1.00;;;;;;5100413;28;20040;-64
2022/03/13 09:40:02;;;;;;;17.83;10.07;;;15.90;1.00;;;;;;5081369;28;20051;-65
2022/03/13 09:43:27;;;;;;;15.18;9.93;;;16.00;1.00;;;;;;5095232;28;20040;-65
2022/03/13 09:46:53;;;;;;;14.88;9.20;;;16.50;1.00;;;;;;5066074;28;20131;-65
2022/03/13 09:50:19;;;;;;;12.80;8.90;;;16.10;1.00;;;;;;5092130;28;20388;-65
2022/03/13 09:53:43;;;;;;;17.42;10.57;;;16.10;1.00;;;;;;5092549;28;20120;-65
2022/03/13 09:57:08;;;;;;;17.83;10.18;;;15.20;1.00;;;;;;5091199;28;20040;-65
2022/03/13 10:00:34;;;;;;;16.00;9.40;;;15.80;1.00;;;;;;5084235;28;20059;-65
2022/03/13 10:04:00;;;;;;;14.68;9.32;;;15.80;1.00;;;;;;5100061;28;20044;-65
2022/03/13 10:07:00;;;;;;;18.83;9.70;;;16.10;1.00;;;;;;5064932;28;20045;-65
2022/03/13 10:10:28;;;;;;;18.42;10.32;;;16.20;1.00;;;;;;5078818;28;20109;-64
2022/03/13 10:13:59;;;;;;;17.45;10.15;;;16.50;1.00;;;;;;5092301;28;20528;-65
2022/03/13 10:17:25;;;;;;;17.95;8.77;;;16.60;1.00;;;;;;5091037;28;20503;-65
2022/03/13 10:20:50;;;;;;;20.90;10.38;;;15.80;1.00;;;;;;5100365;28;20034;-64
2022/03/13 10:24:15;;;;;;;18.55;10.20;;;14.60;1.00;;;;;;5092103;28;20048;-65
2022/03/13 10:27:41;;;;;;;15.35;8.77;;;15.20;1.00;;;;;;5071854;28;20063;-65
2022/03/13 10:31:06;;;;;;;19.25;9.02;;;14.90;1.00;;;;;;5065001;28;20047;-64
2022/03/13 10:34:31;;;;;;;13.75;8.10;;;12.50;1.00;;;;;;5085330;28;20029;-64
2022/03/13 10:37:57;;;;;;;14.98;7.95;;;10.90;1.00;;;;;;5088047;28;20043;-64
2022/03/13 10:41:22;;;;;;;15.15;8.18;;;10.10;1.00;;;;;;5079903;28;20043;-65
2022/03/13 10:44:52;;;;;;;14.30;8.18;;;9.60;1.00;;;;;;5068568;28;20040;-64
2022/03/13 10:48:14;;;;;;;14.95;8.85;;;9.40;1.00;;;;;;5078249;28;20028;-64
2022/03/13 10:51:45;;;;;;;18.63;8.48;;;9.20;1.00;;;;;;5089163;28;20105;-64
2022/03/13 10:54:32;;;;;;;16.67;8.73;;;9.10;1.00;;;;;;5068326;28;20044;-64
2022/03/13 10:57:47;;;;;;;14.95;7.95;;;9.00;1.00;;;;;;5051467;28;20032;-64
2022/03/13 11:01:12;;;;;;;17.05;8.30;;;9.00;1.00;;;;;;5080304;28;20050;-64
2022/03/13 11:04:38;;;;;;;15.05;8.35;;;8.90;1.00;;;;;;5066057;28;20041;-63
2022/03/13 11:08:04;;;;;;;14.65;7.75;;;8.80;1.00;;;;;;5079930;28;20585;-64
2022/03/13 11:11:28;;;;;;;15.10;8.55;;;8.90;1.00;;;;;;5079643;28;20093;-64
2022/03/13 11:14:54;;;;;;;15.98;8.68;;;8.90;1.00;;;;;;5063293;28;20526;-64
2022/03/13 11:18:19;;;;;;;18.88;7.95;;;8.90;1.00;;;;;;5077409;28;20077;-63
2022/03/13 11:21:45;;;;;;;13.63;7.43;;;9.00;1.00;;;;;;5076158;28;20039;-64
2022/03/13 11:25:10;;;;;;;16.92;7.97;;;9.20;1.00;;;;;;5081440;28;20078;-64
2022/03/13 11:28:35;;;;;;;14.45;8.02;;;9.20;1.00;;;;;;5071315;28;20028;-65
2022/03/13 11:32:07;;;;;;;15.45;8.30;;;9.10;1.00;;;;;;5050461;28;20645;-65
2022/03/13 11:35:11;;;;;;;15.77;8.60;;;9.10;1.00;;;;;;5085496;28;20507;-62
2022/03/13 11:37:37;;;;;;;18.90;8.65;;;9.20;1.00;;;;;;5069493;28;20052;-63
2022/03/13 11:40:07;;;;;;;14.65;8.13;;;9.20;1.00;;;;;;5090760;28;20461;-63
2022/03/13 11:42:54;;;;;;;13.85;7.70;;;9.20;1.00;;;;;;5051010;28;20082;-63
2022/03/13 11:45:30;;;;;;;12.75;7.78;;;9.20;1.00;;;;;;5090230;28;20032;-63
2022/03/13 11:47:56;;;;;;;14.63;7.45;;;9.30;1.00;;;;;;5070617;28;20024;-64
2022/03/13 11:50:58;;;;;;;15.23;7.57;;;9.40;1.00;;;;;;5090580;28;20028;-64
2022/03/13 11:53:29;;;;;;;17.80;7.30;;;9.60;1.00;;;;;;5076014;28;20058;-63
2022/03/13 11:55:57;;;;;;;15.38;7.00;;;9.80;1.00;;;;;;5090385;28;20032;-63
2022/03/13 11:58:48;;;;;;;14.95;8.13;;;9.80;1.00;;;;;;5075633;28;20065;-64
2022/03/13 12:01:15;;;;;;;14.50;7.13;;;9.80;1.00;;;;;;5049947;28;20037;-63
2022/03/13 12:04:03;;;;;;;14.75;7.40;;;9.90;1.00;;;;;;5087192;28;20036;-64
2022/03/13 12:06:48;;;;;;;16.90;8.32;;;10.00;1.00;;;;;;5049848;28;20496;-63
2022/03/13 12:09:18;;;;;;;11.93;7.40;;;10.10;1.00;;;;;;5062104;28;20115;-63
2022/03/13 12:11:50;;;;;;;14.77;7.88;;;10.10;1.00;;;;;;5089504;28;20395;-64
2022/03/13 12:14:18;;;;;;;15.05;8.95;;;10.30;1.00;;;;;;5062276;28;20029;-64
2022/03/13 12:16:46;;;;;;;13.05;7.18;;;10.30;1.00;;;;;;5089355;28;20035;-64
2022/03/13 12:19:12;;;;;;;15.15;8.82;;;10.30;1.00;;;;;;5067770;28;20111;-63
2022/03/13 12:21:42;;;;;;;17.42;9.07;;;10.40;1.00;;;;;;5089234;28;20448;-63
2022/03/13 12:24:15;;;;;;;16.23;7.97;;;10.40;1.00;;;;;;5069432;28;20052;-63
2022/03/13 12:26:45;;;;;;;15.50;8.27;;;10.50;1.00;;;;;;5052032;28;20020;-62
2022/03/13 12:29:55;;;;;;;11.52;7.47;;;10.60;1.00;;;;;;5087607;28;20036;-63
2022/03/13 12:33:19;;;;;;;16.38;7.75;;;10.60;1.00;;;;;;5076136;28;20115;-63
2022/03/13 12:36:45;;;;;;;13.25;7.38;;;10.70;1.00;;;;;;5067032;28;20040;-63
2022/03/13 12:40:10;;;;;;;15.30;7.57;;;10.70;1.00;;;;;;5071430;28;20044;-64
2022/03/13 12:43:36;;;;;;;15.85;8.23;;;10.70;1.00;;;;;;5064180;28;20074;-62
2022/03/13 12:47:00;;;;;;;16.85;8.57;;;10.80;1.00;;;;;;5060249;28;20051;-62
2022/03/13 12:50:26;;;;;;;14.40;7.95;;;10.90;1.00;;;;;;5072101;28;20155;-64
2022/03/13 12:53:51;;;;;;;17.13;8.60;;;11.00;1.00;;;;;;5070857;28;20477;-64
2022/03/13 12:56:56;;;;;;;15.10;8.40;;;10.90;1.00;;;;;;5079056;28;20036;-63
2022/03/13 13:00:22;;;;;;;13.73;7.25;;;11.00;1.00;;;;;;5079856;28;20147;-63
2022/03/13 13:03:47;;;;;;;17.77;8.15;;;11.00;1.00;;;;;;5083231;28;20122;-63
2022/03/13 13:07:12;;;;;;;15.55;8.57;;;11.00;1.00;;;;;;5081935;28;20036;-63
2022/03/13 13:10:37;;;;;;;12.70;7.60;;;11.10;1.00;;;;;;5073889;28;20399;-63
2022/03/13 13:14:03;;;;;;;11.40;6.63;;;11.20;1.00;;;;;;5066147;28;20051;-63
2022/03/13 13:17:29;;;;;;;11.30;6.25;;;11.20;1.00;;;;;;5078871;28;20067;-64
2022/03/13 13:20:43;;;;;;;12.98;6.85;;;11.20;1.00;;;;;;5082618;28;20044;-64
2022/03/13 13:24:08;;;;;;;10.38;6.35;;;11.30;1.00;;;;;;5075948;28;20044;-63
2022/03/13 13:27:34;;;;;;;12.98;7.03;;;11.30;1.00;;;;;;5063655;28;20070;-63
2022/03/13 13:31:05;;;;;;;12.40;6.55;;;11.50;1.00;;;;;;5067177;28;20702;-64
2022/03/13 13:34:34;;;;;;;14.20;6.95;;;11.50;1.00;;;;;;5079324;28;20039;-63
2022/03/13 13:38:17;;;;;;;11.20;6.63;;;11.50;1.00;;;;;;5083077;28;20068;-63
2022/03/13 13:41:42;;;;;;;11.10;6.05;;;11.70;1.00;;;;;;5072334;28;20411;-63
2022/03/13 13:45:10;;;;;;;11.27;6.15;;;11.80;1.00;;;;;;5072752;28;20059;-63
2022/03/13 13:48:15;;;;;;;;;;;11.90;1.00;;;;;;5075258;28;20119;-63
2022/03/13 13:51:58;;;;;;;8.80;5.57;;;11.90;1.00;;;;;;5082291;28;19994;-64
2022/03/13 13:55:23;;;;;;;8.43;5.18;;;12.00;1.00;;;;;;5072976;28;20067;-64
2022/03/13 13:58:55;;;;;;;9.82;5.30;;;12.00;1.00;;;;;;5060929;28;20562;-64
2022/03/13 14:02:03;;;;;;;10.70;5.65;;;12.00;1.00;;;;;;5079772;28;20127;-63
2022/03/13 14:05:29;;;;;;;8.95;4.82;;;12.10;1.00;;;;;;5075644;28;20062;-64
2022/03/13 14:08:54;;;;;;;10.02;5.30;;;12.20;1.00;;;;;;5075905;28;20040;-63
2022/03/13 14:12:20;;;;;;;12.95;4.70;;;12.20;1.00;;;;;;5083437;28;20685;-63
2022/03/13 14:15:45;;;;;;;6.82;4.43;;;12.30;1.00;;;;;;5076044;28;20028;-63
2022/03/13 14:19:11;;;;;;;9.52;4.60;;;12.40;1.00;;;;;;5072105;28;20051;-63
2022/03/13 14:22:36;;;;;;;6.32;4.20;;;12.40;1.00;;;;;;5076141;28;20496;-65
2022/03/13 14:26:01;;;;;;;7.50;4.35;;;12.40;1.00;;;;;;5085021;28;20044;-63
2022/03/13 14:29:26;;;;;;;6.15;3.88;;;12.40;1.00;;;;;;5069937;28;20123;-64
2022/03/13 14:32:52;;;;;;;7.72;4.40;;;12.50;1.00;;;;;;5083826;28;20039;-64
2022/03/13 14:36:17;;;;;;;8.18;4.50;;;12.50;1.00;;;;;;5071705;28;20067;-63
2022/03/13 14:39:43;;;;;;;7.20;4.40;;;12.50;1.00;;;;;;5086178;28;20036;-63
2022/03/13 14:43:08;;;;;;;7.70;4.20;;;12.50;1.00;;;;;;5075632;28;20526;-64
2022/03/13 14:46:33;;;;;;;8.05;4.45;;;12.50;1.00;;;;;;5078123;28;20048;-64
2022/03/13 14:50:01;;;;;;;7.32;4.95;;;12.50;1.00;;;;;;5084959;28;20126;-64
2022/03/13 14:53:24;;;;;;;9.95;5.05;;;12.60;1.00;;;;;;5072264;28;20051;-63
2022/03/13 14:56:49;;;;;;;8.77;4.00;;;12.60;1.00;;;;;;5075257;28;20724;-64
2022/03/13 15:00:14;;;;;;;5.88;3.35;;;12.50;1.00;;;;;;5077469;28;20040;-63
2022/03/13 15:03:40;;;;;;;6.72;4.45;;;12.50;1.00;;;;;;5077554;28;20062;-63
2022/03/13 15:07:05;;;;;;;6.70;3.65;;;12.50;1.00;;;;;;5084064;28;20138;-63
2022/03/13 15:10:31;;;;;;;6.57;4.32;;;12.50;1.00;;;;;;5085340;28;20028;-63
2022/03/13 15:13:56;;;;;;;6.82;3.75;;;12.40;1.00;;;;;;5087360;28;20679;-64
2022/03/13 15:17:21;;;;;;;6.35;3.70;;;12.50;1.00;;;;;;5083840;28;20028;-64
2022/03/13 15:20:47;;;;;;;5.95;3.60;;;12.40;1.00;;;;;;5086415;28;20040;-63
2022/03/13 15:24:12;;;;;;;6.32;3.40;;;12.40;1.00;;;;;;5086178;28;20410;-63
2022/03/13 15:27:38;;;;;;;5.65;2.90;;;12.50;1.00;;;;;;5070286;28;20583;-63
2022/03/13 15:31:03;;;;;;;7.47;3.65;;;12.30;1.00;;;;;;5063670;28;20615;-63
2022/03/13 15:34:28;;;;;;;6.85;3.30;;;12.40;1.00;;;;;;5076567;28;20067;-63
2022/03/13 15:37:54;;;;;;;8.02;3.70;;;12.40;1.00;;;;;;5078749;28;20044;-64
2022/03/13 15:41:19;;;;;;;7.88;4.35;;;12.20;1.00;;;;;;5067185;28;20062;-64
2022/03/13 15:44:46;;;;;;;5.93;3.58;;;12.30;1.00;;;;;;5077723;28;20047;-64
2022/03/13 15:48:10;;;;;;;6.45;3.70;;;12.30;1.00;;;;;;5078638;28;20158;-64
2022/03/13 15:51:36;;;;;;;7.63;4.10;;;12.30;1.00;;;;;;5063375;28;20047;-63
2022/03/13 15:55:00;;;;;;;5.63;3.20;;;12.20;1.00;;;;;;5067936;28;20038;-63
2022/03/13 15:58:26;;;;;;;5.68;3.42;;;12.20;1.00;;;;;;5064682;28;20460;-64
2022/03/13 16:01:51;;;;;;;5.80;3.75;;;12.00;1.00;;;;;;5086292;28;20052;-63
2022/03/13 16:05:17;;;;;;;7.68;3.83;;;12.00;1.00;;;;;;5071466;28;20064;-63
2022/03/13 16:08:42;;;;;;;6.35;3.72;;;12.00;1.00;;;;;;5077151;28;20038;-63
2022/03/13 16:12:12;;;;;;;8.13;3.42;;;11.80;1.00;;;;;;5076788;28;20488;-63
2022/03/13 16:15:35;;;;;;;7.22;3.95;;;11.60;1.00;;;;;;5075046;28;20071;-63
2022/03/13 16:18:58;;;;;;;7.85;4.72;;;11.50;1.00;;;;;;5080924;28;20039;-63
2022/03/13 16:22:23;;;;;;;8.60;5.25;;;11.40;1.00;;;;;;5084278;28;20127;-63
2022/03/13 16:25:49;;;;;;;10.63;5.68;;;11.40;1.00;;;;;;5077808;28;20048;-63
2022/03/13 16:29:14;;;;;;;8.30;4.38;;;11.40;1.00;;;;;;5060507;28;20083;-63
2022/03/13 16:32:40;;;;;;;9.85;5.15;;;11.30;1.00;;;;;;5074408;28;20037;-63
2022/03/13 16:36:05;;;;;;;7.22;4.55;;;11.40;1.00;;;;;;5077644;28;20483;-63